createdAt,value
2023-03-04T00:00:00.830Z,18.67
2023-03-04T00:02:28.088Z,18.92
2023-03-04T00:04:55.416Z,19.17
2023-03-04T00:07:22.763Z,18.92
2023-03-04T00:09:49.931Z,18.48
2023-03-04T00:12:17.157Z,18.85
2023-03-04T00:14:44.391Z,17.10
2023-03-04T00:17:11.654Z,16.08
2023-03-04T00:19:39.302Z,16.17
2023-03-04T00:22:06.770Z,17.25
2023-03-04T00:24:35.146Z,17.08
2023-03-04T00:27:02.474Z,15.48
2023-03-04T00:29:29.710Z,15.27
2023-03-04T00:31:57.046Z,15.77
2023-03-04T00:34:24.403Z,15.32
2023-03-04T00:36:51.989Z,15.90
2023-03-04T00:39:19.164Z,15.23
2023-03-04T00:41:46.482Z,15.32
2023-03-04T00:44:13.741Z,16.15
2023-03-04T00:46:40.972Z,15.90
2023-03-04T00:49:08.156Z,16.73
2023-03-04T00:51:35.414Z,15.93
2023-03-04T00:54:02.766Z,15.95
2023-03-04T00:56:30.043Z,16.75
2023-03-04T00:58:57.428Z,16.65
2023-03-04T01:01:24.652Z,17.02
2023-03-04T01:03:52.016Z,15.73
2023-03-04T01:06:19.412Z,16.08
2023-03-04T01:08:46.705Z,15.95
2023-03-04T01:11:14.330Z,16.17
2023-03-04T01:13:41.662Z,16.88
2023-03-04T01:16:13.021Z,15.02
2023-03-04T01:18:40.497Z,15.63
2023-03-04T01:21:09.139Z,14.85
2023-03-04T01:23:36.374Z,15.30
2023-03-04T01:26:03.672Z,14.55
2023-03-04T01:28:30.960Z,14.82
2023-03-04T01:30:58.158Z,14.40
2023-03-04T01:33:25.433Z,14.60
2023-03-04T01:35:52.758Z,14.43
2023-03-04T01:38:20.109Z,14.55
2023-03-04T01:40:48.632Z,14.95
2023-03-04T01:43:24.361Z,14.73
2023-03-04T01:45:53.236Z,13.90
2023-03-04T01:48:37.268Z,13.93
2023-03-04T01:51:06.393Z,15.25
2023-03-04T01:53:33.886Z,15.00
2023-03-04T01:56:11.004Z,13.90
2023-03-04T01:58:38.266Z,14.82
2023-03-04T02:01:05.477Z,14.95
2023-03-04T02:03:32.704Z,14.50
2023-03-04T02:06:00.054Z,17.67
2023-03-04T02:08:27.317Z,14.35
2023-03-04T02:10:55.048Z,14.73
2023-03-04T02:13:22.554Z,14.10
2023-03-04T02:15:49.886Z,14.02
2023-03-04T02:18:23.023Z,13.75
2023-03-04T02:21:05.607Z,14.70
2023-03-04T02:23:53.915Z,13.27
2023-03-04T02:26:25.028Z,13.10
2023-03-04T02:28:55.068Z,13.80
2023-03-04T02:31:35.281Z,12.70
2023-03-04T02:34:30.040Z,13.18
2023-03-04T02:36:58.101Z,13.63
2023-03-04T02:39:36.531Z,12.73
2023-03-04T02:42:04.827Z,12.40
2023-03-04T02:44:39.463Z,13.25
2023-03-04T02:47:09.734Z,13.48
2023-03-04T02:49:39.426Z,12.93
2023-03-04T02:52:18.538Z,13.15
2023-03-04T02:54:46.056Z,13.25
2023-03-04T02:57:15.339Z,11.05
2023-03-04T02:59:46.138Z,12.40
2023-03-04T03:02:18.130Z,12.48
2023-03-04T03:04:46.165Z,12.50
2023-03-04T03:07:15.830Z,12.55
2023-03-04T03:09:43.885Z,13.15
2023-03-04T03:12:11.153Z,13.13
2023-03-04T03:14:38.769Z,13.32
2023-03-04T03:17:07.939Z,12.52
2023-03-04T03:19:35.172Z,12.02
2023-03-04T03:22:05.927Z,12.30
2023-03-04T03:24:33.187Z,13.25
2023-03-04T03:27:00.486Z,14.50
2023-03-04T03:29:27.958Z,14.32
2023-03-04T03:31:57.136Z,14.20
2023-03-04T03:34:24.502Z,13.70
2023-03-04T03:36:51.966Z,15.07
2023-03-04T03:39:19.276Z,14.35
2023-03-04T03:41:46.538Z,15.50
2023-03-04T03:44:13.751Z,16.38
2023-03-04T03:46:41.040Z,17.58
2023-03-04T03:49:08.310Z,17.50
2023-03-04T03:51:35.586Z,16.60
2023-03-04T03:54:02.822Z,16.42
2023-03-04T03:56:30.011Z,16.92
2023-03-04T03:58:57.283Z,17.38
2023-03-04T04:01:24.466Z,17.30
2023-03-04T04:03:51.889Z,17.50
2023-03-04T04:06:19.676Z,16.50
2023-03-04T04:08:46.937Z,16.65
2023-03-04T04:11:14.218Z,18.00
2023-03-04T04:13:41.460Z,14.93
2023-03-04T04:16:09.665Z,16.05
2023-03-04T04:18:37.559Z,15.27
2023-03-04T04:21:05.233Z,13.63
2023-03-04T04:23:33.117Z,15.93
2023-03-04T04:26:00.413Z,14.55
2023-03-04T04:28:27.650Z,15.43
2023-03-04T04:30:55.009Z,15.23
2023-03-04T04:33:22.325Z,14.88
2023-03-04T04:35:49.674Z,14.75
2023-03-04T04:38:16.915Z,15.18
2023-03-04T04:40:44.255Z,15.35
2023-03-04T04:43:11.531Z,16.02
2023-03-04T04:45:38.797Z,15.73
2023-03-04T04:48:06.317Z,14.80
2023-03-04T04:50:33.511Z,14.98
2023-03-04T04:53:00.809Z,14.82
2023-03-04T04:55:28.443Z,15.27
2023-03-04T04:57:55.777Z,15.85
2023-03-04T05:00:23.087Z,14.63
2023-03-04T05:02:50.496Z,14.63
2023-03-04T05:05:17.901Z,14.00
2023-03-04T05:07:45.169Z,13.73
2023-03-04T05:10:12.466Z,13.63
2023-03-04T05:12:39.629Z,14.68
2023-03-04T05:15:07.350Z,14.13
2023-03-04T05:17:34.556Z,15.07
2023-03-04T05:20:02.280Z,14.68
2023-03-04T05:22:29.482Z,15.70
2023-03-04T05:24:57.371Z,15.43
2023-03-04T05:27:24.581Z,15.05
2023-03-04T05:29:52.020Z,15.15
2023-03-04T05:32:19.379Z,14.55
2023-03-04T05:34:46.749Z,15.63
2023-03-04T05:37:13.935Z,16.55
2023-03-04T05:39:41.157Z,18.15
2023-03-04T05:42:08.641Z,15.82
2023-03-04T05:44:35.907Z,14.70
2023-03-04T05:47:03.175Z,17.30
2023-03-04T05:49:30.460Z,17.00
2023-03-04T05:51:57.695Z,16.58
2023-03-04T05:54:24.913Z,16.80
2023-03-04T05:56:52.166Z,14.95
2023-03-04T05:59:20.917Z,14.45
2023-03-04T06:01:48.805Z,15.57
2023-03-04T06:04:16.337Z,15.13
2023-03-04T06:06:43.651Z,15.88
2023-03-04T06:09:10.926Z,14.75
2023-03-04T06:11:38.328Z,14.70
2023-03-04T06:14:05.659Z,15.35
2023-03-04T06:16:33.346Z,14.43
2023-03-04T06:19:00.578Z,14.50
2023-03-04T06:21:27.815Z,15.35
2023-03-04T06:23:55.123Z,15.75
2023-03-04T06:26:22.450Z,14.00
2023-03-04T06:28:49.719Z,15.73
2023-03-04T06:31:17.189Z,15.88
2023-03-04T06:33:44.499Z,17.08
2023-03-04T06:36:11.702Z,17.30
2023-03-04T06:38:38.894Z,16.38
2023-03-04T06:41:11.470Z,16.75
2023-03-04T06:43:39.292Z,16.13
2023-03-04T06:46:07.779Z,15.20
2023-03-04T06:48:35.113Z,15.90
2023-03-04T06:51:09.749Z,16.80
2023-03-04T06:53:37.441Z,15.80
2023-03-04T06:56:05.216Z,15.80
2023-03-04T06:58:32.762Z,16.52
2023-03-04T07:01:10.525Z,17.42
2023-03-04T07:03:37.796Z,15.73
2023-03-04T07:06:05.164Z,17.02
2023-03-04T07:08:32.350Z,15.55
2023-03-04T07:10:59.639Z,16.00
2023-03-04T07:13:26.803Z,15.10
2023-03-04T07:15:54.125Z,16.83
2023-03-04T07:18:21.369Z,15.00
2023-03-04T07:20:51.801Z,15.15
2023-03-04T07:23:19.576Z,15.18
2023-03-04T07:25:48.858Z,15.40
2023-03-04T07:28:16.605Z,16.20
2023-03-04T07:30:44.158Z,15.90
2023-03-04T07:33:11.654Z,14.13
2023-03-04T07:35:38.881Z,15.75
2023-03-04T07:38:06.273Z,15.48
2023-03-04T07:40:33.521Z,14.90
2023-03-04T07:43:00.725Z,15.38
2023-03-04T07:45:28.934Z,15.38
2023-03-04T07:47:58.009Z,14.40
2023-03-04T07:50:25.264Z,15.07
2023-03-04T07:52:52.655Z,14.95
2023-03-04T07:55:20.143Z,14.55
2023-03-04T07:57:48.356Z,15.23
2023-03-04T08:00:17.462Z,13.68
2023-03-04T08:02:44.831Z,15.93
2023-03-04T08:05:12.094Z,15.13
2023-03-04T08:07:39.355Z,15.35
2023-03-04T08:10:08.109Z,14.68
2023-03-04T08:12:36.273Z,15.20
2023-03-04T08:15:04.015Z,16.52
2023-03-04T08:17:31.323Z,14.90
2023-03-04T08:19:58.501Z,15.30
2023-03-04T08:22:25.800Z,13.63
2023-03-04T08:24:53.016Z,14.70
2023-03-04T08:27:20.420Z,14.13
2023-03-04T08:29:47.626Z,14.20
2023-03-04T08:32:14.907Z,14.77
2023-03-04T08:34:42.205Z,14.23
2023-03-04T08:37:09.489Z,14.50
2023-03-04T08:39:37.872Z,14.00
2023-03-04T08:42:05.115Z,15.95
2023-03-04T08:44:32.386Z,15.57
2023-03-04T08:46:59.630Z,14.10
2023-03-04T08:49:26.906Z,14.13
2023-03-04T08:51:54.140Z,14.63
2023-03-04T08:54:21.492Z,15.82
2023-03-04T08:56:48.884Z,15.43
2023-03-04T08:59:16.053Z,15.15
2023-03-04T09:01:43.514Z,15.38
2023-03-04T09:04:11.040Z,16.25
2023-03-04T09:06:38.376Z,15.02
2023-03-04T09:09:05.881Z,15.10
2023-03-04T09:11:33.132Z,15.32
2023-03-04T09:14:00.513Z,15.60
2023-03-04T09:16:27.972Z,15.52
2023-03-04T09:18:55.351Z,16.60
2023-03-04T09:21:22.677Z,16.38
2023-03-04T09:23:49.908Z,17.02
2023-03-04T09:26:27.301Z,15.65
2023-03-04T09:28:57.314Z,15.23
2023-03-04T09:31:25.409Z,17.45
2023-03-04T09:33:53.929Z,16.52
2023-03-04T09:36:21.726Z,16.85
2023-03-04T09:38:49.062Z,15.60
2023-03-04T09:41:21.304Z,15.38
2023-03-04T09:43:50.645Z,15.75
2023-03-04T09:46:45.492Z,16.52
2023-03-04T09:49:14.024Z,15.30
2023-03-04T09:51:51.319Z,16.15
2023-03-04T09:54:41.764Z,15.55
2023-03-04T09:57:41.030Z,16.23
2023-03-04T10:00:23.654Z,15.57
2023-03-04T10:03:12.251Z,15.77
2023-03-04T10:05:48.414Z,16.10
2023-03-04T10:08:40.517Z,16.77
2023-03-04T10:11:23.743Z,17.10
2023-03-04T10:14:14.864Z,16.77
2023-03-04T10:17:06.260Z,15.95
2023-03-04T10:19:56.999Z,16.07
2023-03-04T10:22:27.328Z,17.17
2023-03-04T10:24:57.648Z,16.77
2023-03-04T10:27:26.083Z,15.88
2023-03-04T10:29:53.402Z,17.20
2023-03-04T10:32:21.317Z,16.88
2023-03-04T10:34:48.641Z,16.40
2023-03-04T10:37:15.926Z,16.25
2023-03-04T10:39:45.439Z,16.48
2023-03-04T10:42:15.545Z,16.70
2023-03-04T10:44:55.348Z,14.93
2023-03-04T10:47:31.443Z,16.02
2023-03-04T10:50:04.707Z,15.45
2023-03-04T10:52:49.978Z,15.15
2023-03-04T10:55:27.501Z,16.70
2023-03-04T10:57:58.096Z,15.48
2023-03-04T11:00:32.229Z,15.45
2023-03-04T11:03:25.273Z,15.50
2023-03-04T11:06:24.585Z,15.60
2023-03-04T11:08:59.859Z,15.10
2023-03-04T11:11:37.817Z,15.07
2023-03-04T11:14:28.781Z,15.32
2023-03-04T11:17:01.911Z,14.15
2023-03-04T11:19:37.663Z,13.98
2023-03-04T11:22:05.936Z,14.85
2023-03-04T11:24:37.288Z,14.27
2023-03-04T11:27:20.831Z,15.00
2023-03-04T11:30:23.313Z,15.00
2023-03-04T11:35:27.387Z,15.18
2023-03-04T11:37:59.900Z,14.75
2023-03-04T11:40:42.184Z,15.57
2023-03-04T11:43:43.398Z,15.68
2023-03-04T11:46:30.091Z,15.45
2023-03-04T11:49:29.433Z,15.48
2023-03-04T11:52:11.411Z,15.30
2023-03-04T11:54:52.355Z,14.55
2023-03-04T11:57:25.866Z,15.35
2023-03-04T12:00:14.459Z,15.32
2023-03-04T12:02:59.710Z,15.07
2023-03-04T12:05:37.569Z,14.27
2023-03-04T12:08:21.864Z,14.95
2023-03-04T12:11:13.348Z,15.70
2023-03-04T12:14:21.560Z,17.33
2023-03-04T12:16:58.627Z,15.25
2023-03-04T12:19:35.148Z,15.93
2023-03-04T12:22:25.227Z,15.82
2023-03-04T12:24:58.570Z,15.60
2023-03-04T12:27:55.479Z,16.05
2023-03-04T12:30:45.141Z,15.05
2023-03-04T12:33:33.530Z,14.50
2023-03-04T12:36:19.448Z,15.63
2023-03-04T12:39:00.953Z,15.50
2023-03-04T12:41:37.935Z,14.88
2023-03-04T12:44:13.432Z,14.27
2023-03-04T12:47:28.952Z,13.73
2023-03-04T12:50:22.624Z,15.18
2023-03-04T12:53:04.632Z,15.57
2023-03-04T12:55:44.289Z,15.02
2023-03-04T12:58:21.177Z,15.75
2023-03-04T13:00:54.388Z,15.35
2023-03-04T13:03:31.332Z,16.20
2023-03-04T13:06:08.887Z,16.10
2023-03-04T13:08:59.692Z,15.55
2023-03-04T13:11:27.107Z,14.65
2023-03-04T13:14:05.070Z,14.40
2023-03-04T13:16:55.879Z,14.25
2023-03-04T13:19:49.484Z,14.18
2023-03-04T13:22:38.454Z,14.30
2023-03-04T13:25:36.478Z,16.02
2023-03-04T13:28:09.718Z,14.77
2023-03-04T13:30:39.992Z,14.50
2023-03-04T13:33:13.745Z,14.52
2023-03-04T13:35:47.033Z,13.70
2023-03-04T13:38:36.608Z,14.20
2023-03-04T13:41:27.179Z,13.30
2023-03-04T13:43:59.048Z,13.95
2023-03-04T13:46:27.623Z,12.88
2023-03-04T13:48:54.921Z,14.20
2023-03-04T13:51:31.105Z,14.15
2023-03-04T13:54:02.860Z,13.73
2023-03-04T13:56:38.052Z,13.63
2023-03-04T13:59:11.505Z,15.85
2023-03-04T14:01:41.423Z,15.10
2023-03-04T14:04:21.035Z,14.63
2023-03-04T14:06:54.227Z,14.30
2023-03-04T14:09:24.247Z,14.52
2023-03-04T14:11:54.442Z,14.73
2023-03-04T14:14:42.392Z,14.43
2023-03-04T14:17:21.490Z,14.60
2023-03-04T14:19:50.912Z,15.57
2023-03-04T14:22:30.070Z,15.68
2023-03-04T14:24:58.538Z,15.50
2023-03-04T14:27:25.818Z,16.90
2023-03-04T14:29:58.111Z,15.82
2023-03-04T14:32:27.012Z,15.52
2023-03-04T14:35:18.259Z,16.27
2023-03-04T14:38:03.925Z,15.02
2023-03-04T14:40:58.271Z,15.00
2023-03-04T14:43:26.201Z,15.57
2023-03-04T14:45:56.998Z,15.43
2023-03-04T14:48:32.470Z,14.38
2023-03-04T14:51:01.821Z,15.00
2023-03-04T14:53:31.233Z,14.23
2023-03-04T14:56:10.760Z,14.10
2023-03-04T14:58:50.453Z,14.45
2023-03-04T15:01:23.504Z,14.07
2023-03-04T15:04:11.899Z,14.77
2023-03-04T15:06:53.807Z,13.80
2023-03-04T15:09:27.299Z,14.20
2023-03-04T15:12:08.481Z,13.88
2023-03-04T15:14:43.575Z,13.70
2023-03-04T15:17:23.596Z,12.48
2023-03-04T15:20:06.036Z,14.02
2023-03-04T15:22:33.979Z,13.05
2023-03-04T15:25:01.528Z,14.18
2023-03-04T15:27:30.494Z,13.55
2023-03-04T15:30:00.811Z,13.95
2023-03-04T15:32:31.552Z,14.32
2023-03-04T15:34:59.991Z,12.63
2023-03-04T15:37:29.401Z,14.27
2023-03-04T15:39:57.676Z,13.82
2023-03-04T15:42:25.575Z,14.70
2023-03-04T15:44:52.780Z,13.98
2023-03-04T15:47:20.031Z,13.70
2023-03-04T15:49:47.741Z,12.98
2023-03-04T15:52:21.392Z,13.02
2023-03-04T15:54:49.492Z,13.77
2023-03-04T15:57:25.637Z,13.82
2023-03-04T15:59:53.582Z,13.43
2023-03-04T16:02:27.163Z,14.70
2023-03-04T16:04:54.721Z,14.35
2023-03-04T16:07:25.458Z,14.20
2023-03-04T16:09:59.724Z,14.50
2023-03-04T16:12:28.121Z,14.48
2023-03-04T16:14:55.666Z,14.60
2023-03-04T16:17:22.880Z,13.90
2023-03-04T16:19:50.187Z,14.27
2023-03-04T16:22:24.254Z,13.90
2023-03-04T16:24:52.413Z,13.00
2023-03-04T16:27:20.180Z,14.02
2023-03-04T16:29:47.386Z,16.20
2023-03-04T16:32:14.691Z,15.02
2023-03-04T16:34:41.923Z,14.23
2023-03-04T16:37:16.886Z,14.73
2023-03-04T16:39:46.256Z,13.40
2023-03-04T16:42:19.205Z,13.60
2023-03-04T16:44:46.813Z,13.98
2023-03-04T16:47:14.096Z,13.30
2023-03-04T16:49:41.707Z,14.05
2023-03-04T16:52:23.594Z,13.27
2023-03-04T16:54:51.066Z,13.70
2023-03-04T16:57:18.499Z,12.38
2023-03-04T16:59:46.222Z,13.30
2023-03-04T17:02:18.255Z,13.82
2023-03-04T17:07:13.382Z,12.57
2023-03-04T17:09:41.015Z,11.55
2023-03-04T17:12:10.937Z,12.50
2023-03-04T17:14:39.281Z,12.73
2023-03-04T17:17:07.739Z,12.77
2023-03-04T17:19:35.108Z,12.93
2023-03-04T17:22:02.710Z,13.52
2023-03-04T17:24:30.585Z,12.25
2023-03-04T17:26:58.087Z,12.93
2023-03-04T17:29:26.676Z,12.40
2023-03-04T17:31:53.940Z,12.55
2023-03-04T17:34:21.171Z,13.05
2023-03-04T17:36:48.430Z,13.50
2023-03-04T17:39:15.753Z,13.55
2023-03-04T17:41:43.050Z,13.45
2023-03-04T17:44:11.007Z,13.20
2023-03-04T17:46:39.344Z,13.98
2023-03-04T17:49:06.607Z,14.20
2023-03-04T17:51:36.859Z,13.63
2023-03-04T17:54:05.775Z,13.30
2023-03-04T17:56:34.043Z,13.45
2023-03-04T17:59:04.040Z,13.60
2023-03-04T18:01:31.599Z,13.30
2023-03-04T18:03:59.183Z,13.45
2023-03-04T18:06:26.422Z,14.07
2023-03-04T18:08:54.267Z,12.82
2023-03-04T18:11:23.634Z,13.38
2023-03-04T18:13:51.346Z,13.60
2023-03-04T18:16:23.631Z,13.68
2023-03-04T18:18:51.418Z,13.02
2023-03-04T18:21:19.786Z,14.20
2023-03-04T18:23:47.628Z,13.13
2023-03-04T18:26:15.710Z,11.85
2023-03-04T18:28:43.104Z,13.05
2023-03-04T18:31:10.850Z,13.10
2023-03-04T18:33:39.790Z,14.55
2023-03-04T18:36:09.570Z,12.70
2023-03-04T18:38:37.199Z,14.15
2023-03-04T18:41:07.240Z,13.23
2023-03-04T18:43:35.229Z,12.90
2023-03-04T18:46:06.987Z,12.40
2023-03-04T18:48:45.165Z,12.50
2023-03-04T18:51:12.581Z,13.00
2023-03-04T18:53:39.948Z,12.25
2023-03-04T18:56:15.488Z,12.43
2023-03-04T18:58:46.075Z,12.57
2023-03-04T19:01:15.107Z,13.70
2023-03-04T19:03:42.691Z,11.95
2023-03-04T19:06:10.098Z,12.93
2023-03-04T19:08:37.344Z,13.10
2023-03-04T19:11:06.073Z,13.60
2023-03-04T19:13:33.787Z,12.75
2023-03-04T19:16:01.088Z,12.77
2023-03-04T19:18:29.499Z,12.45
2023-03-04T19:20:59.965Z,12.25
2023-03-04T19:23:27.360Z,12.98
2023-03-04T19:25:54.787Z,12.27
2023-03-04T19:28:22.089Z,13.63
2023-03-04T19:30:49.386Z,13.02
2023-03-04T19:33:16.636Z,12.52
2023-03-04T19:35:46.878Z,13.35
2023-03-04T19:38:14.187Z,12.50
2023-03-04T19:40:42.235Z,12.00
2023-03-04T19:43:09.478Z,12.27
2023-03-04T19:45:36.777Z,11.68
2023-03-04T19:48:04.383Z,12.13
2023-03-04T19:50:32.456Z,11.30
2023-03-04T19:52:59.730Z,13.02
2023-03-04T19:55:27.023Z,12.68
2023-03-04T19:57:54.284Z,12.50
2023-03-04T20:00:23.901Z,11.45
2023-03-04T20:02:52.068Z,12.60
2023-03-04T20:05:19.426Z,11.88
2023-03-04T20:07:46.638Z,12.00
2023-03-04T20:10:14.596Z,12.32
2023-03-04T20:12:41.807Z,11.98
2023-03-04T20:15:09.499Z,11.48
2023-03-04T20:17:36.781Z,14.02
2023-03-04T20:20:04.202Z,13.43
2023-03-04T20:22:31.538Z,12.93
2023-03-04T20:24:58.966Z,11.80
2023-03-04T20:27:26.235Z,12.52
2023-03-04T20:29:53.637Z,12.52
2023-03-04T20:32:21.106Z,12.60
2023-03-04T20:34:50.867Z,12.30
2023-03-04T20:37:18.116Z,12.32
2023-03-04T20:39:46.636Z,13.35
2023-03-04T20:42:13.813Z,12.70
2023-03-04T20:44:41.084Z,13.10
2023-03-04T20:47:08.361Z,14.60
2023-03-04T20:49:35.660Z,12.65
2023-03-04T20:52:06.558Z,15.00
2023-03-04T20:54:38.633Z,13.40
2023-03-04T20:59:39.721Z,14.90
2023-03-04T21:02:09.372Z,13.40
2023-03-04T21:04:36.715Z,13.55
2023-03-04T21:07:04.330Z,14.82
2023-03-04T21:09:31.637Z,14.68
2023-03-04T21:12:00.811Z,12.98
2023-03-04T21:14:30.692Z,13.55
2023-03-04T21:17:01.257Z,13.73
2023-03-04T21:19:31.026Z,14.18
2023-03-04T21:21:59.903Z,14.35
2023-03-04T21:24:30.924Z,15.27
2023-03-04T21:26:58.825Z,14.93
2023-03-04T21:29:28.252Z,16.40
2023-03-04T21:32:13.297Z,16.00
2023-03-04T21:34:49.397Z,16.42
2023-03-04T21:37:16.657Z,16.08
2023-03-04T21:42:16.159Z,15.77
2023-03-04T21:44:51.619Z,17.17
2023-03-04T21:47:21.236Z,17.42
2023-03-04T21:49:48.676Z,17.67
2023-03-04T21:52:16.996Z,18.08
2023-03-04T21:54:44.213Z,18.40
2023-03-04T21:57:11.452Z,18.20
2023-03-04T21:59:39.105Z,16.80
2023-03-04T22:02:07.896Z,17.55
2023-03-04T22:04:35.630Z,17.13
2023-03-04T22:07:02.909Z,17.83
2023-03-04T22:09:30.168Z,17.75
2023-03-04T22:11:57.459Z,19.48
2023-03-04T22:14:24.858Z,18.00
2023-03-04T22:16:55.713Z,18.42
2023-03-04T22:19:25.163Z,19.08
2023-03-04T22:21:52.947Z,19.45
2023-03-04T22:24:21.026Z,18.38
2023-03-04T22:26:48.375Z,17.95
2023-03-04T22:29:15.641Z,18.00
2023-03-04T22:31:42.899Z,18.88
2023-03-04T22:34:13.155Z,18.55
2023-03-04T22:36:43.309Z,17.30
2023-03-04T22:39:14.062Z,17.55
2023-03-04T22:41:41.806Z,18.02
2023-03-04T22:44:09.048Z,17.23
2023-03-04T22:46:38.565Z,17.38
2023-03-04T22:49:11.208Z,18.25
2023-03-04T22:51:41.662Z,17.02
2023-03-04T22:54:12.311Z,17.92
2023-03-04T22:56:39.659Z,18.08
2023-03-04T22:59:06.991Z,18.92
2023-03-04T23:01:34.322Z,17.23
2023-03-04T23:04:01.994Z,18.50
2023-03-04T23:06:30.513Z,19.48
2023-03-04T23:08:58.830Z,18.20
2023-03-04T23:11:29.224Z,17.95
2023-03-04T23:13:57.579Z,18.83
2023-03-04T23:16:27.842Z,16.33
2023-03-04T23:18:56.202Z,18.45
2023-03-04T23:21:25.643Z,17.92
2023-03-04T23:23:53.570Z,17.63
2023-03-04T23:26:24.669Z,17.48
2023-03-04T23:28:52.256Z,19.00
2023-03-04T23:31:19.535Z,16.92
2023-03-04T23:33:47.879Z,17.58
2023-03-04T23:36:18.032Z,18.15
2023-03-04T23:38:47.497Z,19.63
2023-03-04T23:41:20.314Z,18.75
2023-03-04T23:43:48.270Z,18.45
2023-03-04T23:46:15.722Z,19.38
2023-03-04T23:48:46.430Z,18.85
2023-03-04T23:51:15.851Z,19.35
2023-03-04T23:53:43.729Z,18.85
2023-03-04T23:56:19.481Z,20.00
2023-03-04T23:58:47.817Z,19.45
